Aérodrome :
LOGIN :

S'inscrire | Disclaimer

   EN    FR    IT 

 










Légende :    VFR   VFR Marginal   IFR   IFR Intensif   IFR Très Intensif
Visi : 
Plafond : 
>= 8 km
>= 3000ft
5 à 8 km
1000 à 3000 ft
1500m à 5 km
500 à 1000 ft
800 à 1500m
200 à 500 ft
< 800m
< 200 ft
Symboles :   Orages  Brouillard  Fortes neiges  Fortes précipitations  Vent > 20 kt
SIGMETs :   Divers  Orages  Givrage  Turbulence  Onde Orograph.  Cendres Volcan.






- Altitude de l'aérodrome : 195 ft


LFMY - Salon de Provence

DERNIER METAR :
  • 261400Z AUTO 20008KT 150V240 CAVOK 24/16 Q1018 NOSIG

METARs EXPIRÉS :
  • 261330Z AUTO 20008KT 170V240 CAVOK 24/16 Q1018 NOSIG
  • 261300Z AUTO 19007KT 160V240 CAVOK 23/15 Q1018 NOSIG
  • 261230Z AUTO 22008KT 170V250 CAVOK 23/16 Q1018 NOSIG
  • 261200Z AUTO 22010KT 200V260 CAVOK 23/16 Q1019 NOSIG
  • 261130Z AUTO 23009KT 200V270 CAVOK 24/14 Q1019 NOSIG
  • 261100Z AUTO 22007KT 170V270 CAVOK 24/15 Q1019 NOSIG
  • 261030Z AUTO 20006KT 140V230 CAVOK 23/14 Q1019 NOSIG
  • 261000Z AUTO 23005KT 170V310 CAVOK 23/13 Q1019 NOSIG
  • 260930Z AUTO 24008KT 200V270 CAVOK 23/12 Q1019 NOSIG

TAF TAF LFMY
Valide du 26 à 09h jusqu'au 27 à 09h UTC


260800Z 2609/2709 21012KT CAVOK
BECMG 2618/2620 VRB02KT
PROB30
TEMPO 2700/2705 BKN010



MET'MAP, la Météo Aéronautique d'un coup d'oeil ! - Copyright ORBIFLY Décembre 2007 - Disclaimer

ORBIFLY MET'MAP TEAM :

Programmation & Développement : Alexandra Zaïnal
Sur une idée originale de : Baudouin d'Aumeries
Soutien technique & logistique : Manuel Goepfert
Assistance : Marc-Olivier Méhu




SOURCES & CREDITS :

   NOAA